createdAt,value
2022-09-03T00:01:52.073Z,15.54
2022-09-03T00:04:36.394Z,15.35
2022-09-03T00:07:05.988Z,15.26
2022-09-03T00:09:51.862Z,15.40
2022-09-03T00:12:25.085Z,15.29
2022-09-03T00:15:06.848Z,15.24
2022-09-03T00:17:44.840Z,15.26
2022-09-03T00:20:17.307Z,15.39
2022-09-03T00:22:49.140Z,15.29
2022-09-03T00:25:22.869Z,15.33
2022-09-03T00:27:55.442Z,15.22
2022-09-03T00:30:24.545Z,15.18
2022-09-03T00:32:56.457Z,15.10
2022-09-03T00:35:23.300Z,15.23
2022-09-03T00:37:55.678Z,15.37
2022-09-03T00:40:48.840Z,15.30
2022-09-03T00:43:48.364Z,15.17
2022-09-03T00:46:33.923Z,15.23
2022-09-03T00:49:04.741Z,15.08
2022-09-03T00:52:33.619Z,15.20
2022-09-03T00:55:32.037Z,15.31
2022-09-03T00:58:17.391Z,15.23
2022-09-03T01:00:45.894Z,15.12
2022-09-03T01:03:14.620Z,15.31
2022-09-03T01:06:13.618Z,15.31
2022-09-03T01:09:17.858Z,15.12
2022-09-03T01:11:59.921Z,15.04
2022-09-03T01:14:53.574Z,14.93
2022-09-03T01:17:25.618Z,14.98
2022-09-03T01:20:23.296Z,15.04
2022-09-03T01:23:04.000Z,15.12
2022-09-03T01:25:48.818Z,15.07
2022-09-03T01:28:25.092Z,15.03
2022-09-03T01:30:59.485Z,14.98
2022-09-03T01:33:40.970Z,14.92
2022-09-03T01:36:40.574Z,14.94
2022-09-03T01:39:16.632Z,14.89
2022-09-03T01:42:02.004Z,14.97
2022-09-03T01:44:48.646Z,14.88
2022-09-03T01:47:37.396Z,14.98
2022-09-03T01:50:17.756Z,14.91
2022-09-03T01:53:04.253Z,14.85
2022-09-03T01:55:44.610Z,14.89
2022-09-03T01:58:36.258Z,14.83
2022-09-03T02:01:15.294Z,14.78
2022-09-03T02:03:48.799Z,14.88
2022-09-03T02:06:16.006Z,14.79
2022-09-03T02:08:43.016Z,14.80
2022-09-03T02:11:10.572Z,14.81
2022-09-03T02:14:05.127Z,14.84
2022-09-03T02:16:35.359Z,14.76
2022-09-03T02:19:07.462Z,14.77
2022-09-03T02:21:37.236Z,14.83
2022-09-03T02:24:05.447Z,14.78
2022-09-03T02:26:32.667Z,14.74
2022-09-03T02:29:01.325Z,14.73
2022-09-03T02:31:29.068Z,14.70
2022-09-03T02:33:58.035Z,14.67
2022-09-03T02:36:33.175Z,14.80
2022-09-03T02:39:00.183Z,14.90
2022-09-03T02:41:29.718Z,14.83
2022-09-03T02:44:26.075Z,14.79
2022-09-03T02:47:03.470Z,14.81
2022-09-03T02:49:33.837Z,14.90
2022-09-03T02:52:12.519Z,14.89
2022-09-03T02:54:40.281Z,14.84
2022-09-03T02:57:13.638Z,14.89
2022-09-03T02:59:44.463Z,14.81
2022-09-03T03:02:13.040Z,14.78
2022-09-03T03:04:40.209Z,14.77
2022-09-03T03:07:07.615Z,14.87
2022-09-03T03:09:34.531Z,14.88
2022-09-03T03:12:01.431Z,14.92
2022-09-03T03:14:28.288Z,14.82
2022-09-03T03:16:55.445Z,14.88
2022-09-03T03:19:22.387Z,14.85
2022-09-03T03:21:49.269Z,14.77
2022-09-03T03:24:16.545Z,14.92
2022-09-03T03:26:43.666Z,14.88
2022-09-03T03:29:17.657Z,14.90
2022-09-03T03:31:44.416Z,14.92
2022-09-03T03:34:11.489Z,14.85
2022-09-03T03:36:38.492Z,14.90
2022-09-03T03:39:08.511Z,14.87
2022-09-03T03:41:38.551Z,14.92
2022-09-03T03:44:07.528Z,14.97
2022-09-03T03:46:39.501Z,14.91
2022-09-03T03:49:08.140Z,14.90
2022-09-03T03:51:36.664Z,15.00
2022-09-03T03:54:05.533Z,14.95
2022-09-03T03:56:33.784Z,14.93
2022-09-03T03:59:00.817Z,14.94
2022-09-03T04:01:28.911Z,14.93
2022-09-03T04:03:57.065Z,14.82
2022-09-03T04:06:24.419Z,14.85
2022-09-03T04:08:51.297Z,14.92
2022-09-03T04:11:23.788Z,14.83
2022-09-03T04:13:51.623Z,14.90
2022-09-03T04:16:21.585Z,14.78
2022-09-03T04:18:49.783Z,14.68
2022-09-03T04:21:20.067Z,14.72
2022-09-03T04:23:48.673Z,14.67
2022-09-03T04:26:18.034Z,14.62
2022-09-03T04:28:45.839Z,14.57
2022-09-03T04:31:19.249Z,14.62
2022-09-03T04:33:46.481Z,14.58
2022-09-03T04:36:22.106Z,14.61
2022-09-03T04:38:51.299Z,14.53
2022-09-03T04:41:20.771Z,14.53
2022-09-03T04:43:51.316Z,14.55
2022-09-03T04:46:20.894Z,14.52
2022-09-03T04:48:51.533Z,14.49
2022-09-03T04:51:28.954Z,14.37
2022-09-03T04:54:01.461Z,14.42
2022-09-03T04:56:31.086Z,14.41
2022-09-03T04:59:01.473Z,14.48
2022-09-03T05:01:30.856Z,14.43
2022-09-03T05:03:58.766Z,14.39
2022-09-03T05:06:27.310Z,14.43
2022-09-03T05:08:55.847Z,14.41
2022-09-03T05:11:23.903Z,14.51
2022-09-03T05:14:01.245Z,14.49
2022-09-03T05:16:30.296Z,14.52
2022-09-03T05:19:06.562Z,14.55
2022-09-03T05:21:33.771Z,14.51
2022-09-03T05:24:03.575Z,14.51
2022-09-03T05:26:37.987Z,14.54
2022-09-03T05:29:07.946Z,14.53
2022-09-03T05:31:37.566Z,14.58
2022-09-03T05:34:05.813Z,14.57
2022-09-03T05:36:35.440Z,14.60
2022-09-03T05:39:05.361Z,14.60
2022-09-03T05:41:34.334Z,14.62
2022-09-03T05:44:02.427Z,14.67
2022-09-03T05:46:37.113Z,14.67
2022-09-03T05:49:06.848Z,14.73
2022-09-03T05:51:35.894Z,14.77
2022-09-03T05:54:06.365Z,14.83
2022-09-03T05:56:35.929Z,14.91
2022-09-03T05:59:09.430Z,14.93
2022-09-03T06:01:41.767Z,14.97
2022-09-03T06:04:17.699Z,15.00
2022-09-03T06:06:46.586Z,15.04
2022-09-03T06:09:18.450Z,15.06
2022-09-03T06:11:46.970Z,15.08
2022-09-03T06:14:15.263Z,15.11
2022-09-03T06:16:49.191Z,15.05
2022-09-03T06:19:16.102Z,14.95
2022-09-03T06:21:44.777Z,14.92
2022-09-03T06:24:14.802Z,14.91
2022-09-03T06:26:42.865Z,14.88
2022-09-03T06:29:10.786Z,14.93
2022-09-03T06:31:38.062Z,14.98
2022-09-03T06:34:06.184Z,15.02
2022-09-03T06:36:33.750Z,15.03
2022-09-03T06:39:04.249Z,15.08
2022-09-03T06:41:35.349Z,15.16
2022-09-03T06:44:11.765Z,15.13
2022-09-03T06:46:42.765Z,15.20
2022-09-03T06:49:11.391Z,15.12
2022-09-03T06:51:43.410Z,15.12
2022-09-03T06:54:12.135Z,15.15
2022-09-03T06:56:41.370Z,15.16
2022-09-03T06:59:13.774Z,15.27
2022-09-03T07:01:44.118Z,15.26
2022-09-03T07:04:13.202Z,15.19
2022-09-03T07:06:43.106Z,15.23
2022-09-03T07:09:12.572Z,15.18
2022-09-03T07:11:47.728Z,15.14
2022-09-03T07:14:17.763Z,15.20
2022-09-03T07:16:46.298Z,15.22
2022-09-03T07:19:14.316Z,15.19
2022-09-03T07:21:48.137Z,15.24
2022-09-03T07:24:16.580Z,15.21
2022-09-03T07:26:49.698Z,15.25
2022-09-03T07:29:20.865Z,15.13
2022-09-03T07:31:52.150Z,15.29
2022-09-03T07:34:22.112Z,15.36
2022-09-03T07:36:51.820Z,15.14
2022-09-03T07:39:20.000Z,15.31
2022-09-03T07:41:47.268Z,15.15
2022-09-03T07:44:16.482Z,15.11
2022-09-03T07:46:45.777Z,14.94
2022-09-03T07:49:12.904Z,14.94
2022-09-03T07:51:40.379Z,14.84
2022-09-03T07:54:10.387Z,14.87
2022-09-03T07:56:38.699Z,14.92
2022-09-03T07:59:06.218Z,15.01
2022-09-03T08:01:34.890Z,15.10
2022-09-03T08:04:03.028Z,15.11
2022-09-03T08:06:34.422Z,15.13
2022-09-03T08:09:05.514Z,15.30
2022-09-03T08:11:36.731Z,15.25
2022-09-03T08:14:09.074Z,15.38
2022-09-03T08:16:39.845Z,15.33
2022-09-03T08:19:07.786Z,15.61
2022-09-03T08:21:35.494Z,15.68
2022-09-03T08:24:03.146Z,15.83
2022-09-03T08:26:32.485Z,15.86
2022-09-03T08:29:00.571Z,15.87
2022-09-03T08:31:28.546Z,15.86
2022-09-03T08:33:57.871Z,15.77
2022-09-03T08:36:27.716Z,15.91
2022-09-03T08:38:55.479Z,15.73
2022-09-03T08:41:44.789Z,15.60
2022-09-03T08:44:29.986Z,15.41
2022-09-03T08:47:21.475Z,15.16
2022-09-03T08:50:23.821Z,15.11
2022-09-03T08:53:02.364Z,15.03
2022-09-03T08:55:42.932Z,15.03
2022-09-03T08:58:21.251Z,14.91
2022-09-03T09:01:01.652Z,14.76
2022-09-03T09:03:31.530Z,14.88
2022-09-03T09:06:08.226Z,15.14
2022-09-03T09:08:55.504Z,15.48
2022-09-03T09:11:41.165Z,15.71
2022-09-03T09:14:39.408Z,15.71
2022-09-03T09:17:15.675Z,15.68
2022-09-03T09:20:21.577Z,15.63
2022-09-03T09:22:54.766Z,15.52
2022-09-03T09:25:24.586Z,15.58
2022-09-03T09:27:58.297Z,16.04
2022-09-03T09:30:26.080Z,16.61
2022-09-03T09:32:53.396Z,16.10
2022-09-03T09:35:20.443Z,16.24
2022-09-03T09:37:56.566Z,16.26
2022-09-03T09:40:41.481Z,16.69
2022-09-03T09:43:12.276Z,17.09
2022-09-03T09:45:44.228Z,16.63
2022-09-03T09:48:20.371Z,17.25
2022-09-03T09:50:47.313Z,17.72
2022-09-03T09:53:18.713Z,17.73
2022-09-03T09:55:56.787Z,17.85
2022-09-03T09:58:27.988Z,17.36
2022-09-03T10:01:15.645Z,17.50
2022-09-03T10:03:55.625Z,18.01
2022-09-03T10:06:49.876Z,18.15
2022-09-03T10:09:31.623Z,18.22
2022-09-03T10:12:14.679Z,18.36
2022-09-03T10:14:48.409Z,18.10
2022-09-03T10:17:36.678Z,18.17
2022-09-03T10:20:26.141Z,17.98
2022-09-03T10:23:10.505Z,18.68
2022-09-03T10:25:53.692Z,19.28
2022-09-03T10:28:27.049Z,18.66
2022-09-03T10:31:32.122Z,18.94
2022-09-03T10:34:06.668Z,19.57
2022-09-03T10:36:55.675Z,19.84
2022-09-03T10:39:28.953Z,19.48
2022-09-03T10:42:08.558Z,19.28
2022-09-03T10:44:45.288Z,19.21
2022-09-03T10:47:41.985Z,19.30
2022-09-03T10:50:26.570Z,18.91
2022-09-03T10:53:11.149Z,18.73
2022-09-03T10:55:57.155Z,18.62
2022-09-03T10:58:33.415Z,18.40
2022-09-03T11:01:11.033Z,18.53
2022-09-03T11:03:49.173Z,18.34
2022-09-03T11:06:24.911Z,18.38
2022-09-03T11:09:34.180Z,18.51
2022-09-03T11:12:07.200Z,19.08
2022-09-03T11:14:54.092Z,19.14
2022-09-03T11:17:32.653Z,19.09
2022-09-03T11:20:15.077Z,19.82
2022-09-03T11:22:43.460Z,19.73
2022-09-03T11:25:14.218Z,19.94
2022-09-03T11:27:55.891Z,19.98
2022-09-03T11:30:37.048Z,20.52
2022-09-03T11:33:09.757Z,20.64
2022-09-03T11:35:36.938Z,21.51
2022-09-03T11:38:23.103Z,21.07
2022-09-03T11:41:00.033Z,22.68
2022-09-03T11:43:30.103Z,22.46
2022-09-03T11:46:14.291Z,22.31
2022-09-03T11:48:43.972Z,21.89
2022-09-03T11:51:21.921Z,23.53
2022-09-03T11:53:59.699Z,25.35
2022-09-03T11:56:26.851Z,22.75
2022-09-03T11:59:13.836Z,22.37
2022-09-03T12:01:56.999Z,23.56
2022-09-03T12:04:39.541Z,22.87
2022-09-03T12:07:17.577Z,24.33
2022-09-03T12:09:53.489Z,24.30
2022-09-03T12:12:38.095Z,23.70
2022-09-03T12:15:43.327Z,23.31
2022-09-03T12:18:24.070Z,22.96
2022-09-03T12:20:55.857Z,23.18
2022-09-03T12:23:50.601Z,22.64
2022-09-03T12:26:20.341Z,22.65
2022-09-03T12:28:52.717Z,22.58
2022-09-03T12:31:23.894Z,23.72
2022-09-03T12:33:59.273Z,22.43
2022-09-03T12:36:49.719Z,22.87
2022-09-03T12:42:20.835Z,24.35
2022-09-03T12:44:48.269Z,23.82
2022-09-03T12:47:37.577Z,25.05
2022-09-03T12:50:25.715Z,23.32
2022-09-03T12:52:56.965Z,24.29
2022-09-03T12:55:55.146Z,23.25
2022-09-03T12:58:35.808Z,23.42
2022-09-03T13:01:14.663Z,23.18
2022-09-03T13:03:54.445Z,23.11
2022-09-03T13:06:29.046Z,22.43
2022-09-03T13:09:05.808Z,22.94
2022-09-03T13:11:37.416Z,22.83
2022-09-03T13:14:11.429Z,22.46
2022-09-03T13:16:38.637Z,23.52
2022-09-03T13:19:14.661Z,22.73
2022-09-03T13:21:57.782Z,22.92
2022-09-03T13:24:43.497Z,23.51
2022-09-03T13:27:42.016Z,23.82
2022-09-03T13:30:13.485Z,23.42
2022-09-03T13:32:57.507Z,23.00
2022-09-03T13:35:29.804Z,23.44
2022-09-03T13:38:19.422Z,24.83
2022-09-03T13:40:58.518Z,23.76
2022-09-03T13:43:29.002Z,23.29
2022-09-03T13:46:40.698Z,23.25
2022-09-03T13:49:49.304Z,24.13
2022-09-03T13:52:43.222Z,23.05
2022-09-03T13:55:20.840Z,23.96
2022-09-03T13:57:47.771Z,24.16
2022-09-03T14:00:25.367Z,23.90
2022-09-03T14:03:19.557Z,22.93
2022-09-03T14:05:49.492Z,23.86
2022-09-03T14:08:35.747Z,23.99
2022-09-03T14:11:32.963Z,23.77
2022-09-03T14:14:17.207Z,23.65
2022-09-03T14:17:03.048Z,22.86
2022-09-03T14:19:39.666Z,23.65
2022-09-03T14:22:27.042Z,24.40
2022-09-03T14:25:05.748Z,23.70
2022-09-03T14:27:34.239Z,23.11
2022-09-03T14:30:07.705Z,22.79
2022-09-03T14:32:48.992Z,23.70
2022-09-03T14:36:03.973Z,24.03
2022-09-03T14:38:39.988Z,23.45
2022-09-03T14:41:42.654Z,23.26
2022-09-03T14:44:24.443Z,24.02
2022-09-03T14:47:15.385Z,22.92
2022-09-03T14:50:10.934Z,22.81
2022-09-03T14:53:22.761Z,22.58
2022-09-03T14:56:22.084Z,22.84
2022-09-03T14:59:10.424Z,23.00
2022-09-03T15:01:38.740Z,22.70
2022-09-03T15:04:09.499Z,22.63
2022-09-03T15:06:58.158Z,23.18
2022-09-03T15:09:43.129Z,22.96
2022-09-03T15:12:35.820Z,23.09
2022-09-03T15:15:10.591Z,22.49
2022-09-03T15:17:55.826Z,22.54
2022-09-03T15:20:29.320Z,22.45
2022-09-03T15:23:13.418Z,22.84
2022-09-03T15:25:59.193Z,23.13
2022-09-03T15:28:46.823Z,22.97
2022-09-03T15:31:51.062Z,22.90
2022-09-03T15:34:46.014Z,22.96
2022-09-03T15:37:25.696Z,22.91
2022-09-03T15:40:34.212Z,22.87
2022-09-03T15:43:13.047Z,22.99
2022-09-03T15:46:03.164Z,22.59
2022-09-03T15:48:58.176Z,22.47
2022-09-03T15:51:34.276Z,22.34
2022-09-03T15:54:12.847Z,22.32
2022-09-03T15:57:24.631Z,22.25
2022-09-03T16:00:29.724Z,22.08
2022-09-03T16:03:08.821Z,22.12
2022-09-03T16:05:52.590Z,21.98
2022-09-03T16:08:44.226Z,21.84
2022-09-03T16:11:36.414Z,21.86
2022-09-03T16:14:34.911Z,21.83
2022-09-03T16:17:09.357Z,21.86
2022-09-03T16:19:48.348Z,21.78
2022-09-03T16:22:52.208Z,21.76
2022-09-03T16:25:32.752Z,21.89
2022-09-03T16:28:28.594Z,21.83
2022-09-03T16:31:08.088Z,21.78
2022-09-03T16:33:50.602Z,21.68
2022-09-03T16:36:30.321Z,21.54
2022-09-03T16:39:19.707Z,21.66
2022-09-03T16:41:59.030Z,21.63
2022-09-03T16:44:45.525Z,21.60
2022-09-03T16:47:22.744Z,21.57
2022-09-03T16:50:09.911Z,21.51
2022-09-03T16:52:59.400Z,21.49
2022-09-03T16:55:39.725Z,21.33
2022-09-03T16:58:25.475Z,21.07
2022-09-03T17:01:00.172Z,21.08
2022-09-03T17:04:11.972Z,21.03
2022-09-03T17:07:03.849Z,21.14
2022-09-03T17:10:03.575Z,21.10
2022-09-03T17:12:50.212Z,21.03
2022-09-03T17:15:33.975Z,20.94
2022-09-03T17:18:03.893Z,20.95
2022-09-03T17:20:33.911Z,20.79
2022-09-03T17:23:07.008Z,20.44
2022-09-03T17:25:50.203Z,20.15
2022-09-03T17:29:02.055Z,20.04
2022-09-03T17:31:51.267Z,20.13
2022-09-03T17:34:33.551Z,20.17
2022-09-03T17:37:45.313Z,19.93
2022-09-03T17:40:37.231Z,19.91
2022-09-03T17:43:22.668Z,19.86
2022-09-03T17:46:05.062Z,19.85
2022-09-03T17:48:46.004Z,19.80
2022-09-03T17:51:22.449Z,19.73
2022-09-03T17:53:54.998Z,19.62
2022-09-03T17:56:30.593Z,19.58
2022-09-03T17:59:38.496Z,19.46
2022-09-03T18:02:14.384Z,19.43
2022-09-03T18:04:45.074Z,19.30
2022-09-03T18:07:42.399Z,19.24
2022-09-03T18:10:27.919Z,19.07
2022-09-03T18:13:11.932Z,19.08
2022-09-03T18:15:46.866Z,18.92
2022-09-03T18:18:34.544Z,18.77
2022-09-03T18:21:31.311Z,18.61
2022-09-03T18:24:26.362Z,18.54
2022-09-03T18:27:18.875Z,18.53
2022-09-03T18:30:08.898Z,18.48
2022-09-03T18:32:54.481Z,18.47
2022-09-03T18:35:48.740Z,18.37
2022-09-03T18:38:42.270Z,18.24
2022-09-03T18:41:58.901Z,18.31
2022-09-03T18:45:18.590Z,18.26
2022-09-03T18:48:20.206Z,18.22
2022-09-03T18:51:12.028Z,18.22
2022-09-03T18:54:12.855Z,18.35
2022-09-03T18:57:08.518Z,18.35
2022-09-03T19:00:18.686Z,18.25
2022-09-03T19:03:19.616Z,18.23
2022-09-03T19:06:20.327Z,18.40
2022-09-03T19:09:08.887Z,18.49
2022-09-03T19:28:55.018Z,18.31
2022-09-03T19:31:46.249Z,18.18
2022-09-03T19:34:43.998Z,17.83
2022-09-03T19:37:39.330Z,17.65
2022-09-03T19:40:58.991Z,17.47
2022-09-03T19:44:26.140Z,17.43
2022-09-03T19:47:20.833Z,17.41
2022-09-03T19:50:30.916Z,17.34
2022-09-03T19:53:20.830Z,17.24
2022-09-03T19:56:31.808Z,17.11
2022-09-03T19:59:25.147Z,17.12
2022-09-03T20:02:11.226Z,17.09
2022-09-03T20:05:03.193Z,17.12
2022-09-03T20:07:50.226Z,16.98
2022-09-03T20:10:24.545Z,17.06
2022-09-03T20:13:12.339Z,17.00
2022-09-03T20:16:01.153Z,17.00
2022-09-03T20:18:35.015Z,17.04
2022-09-03T20:21:10.139Z,17.01
2022-09-03T20:23:57.300Z,16.93
2022-09-03T20:26:54.301Z,16.83
2022-09-03T20:29:45.884Z,16.69
2022-09-03T20:32:34.038Z,16.77
2022-09-03T20:35:00.935Z,16.74
2022-09-03T20:38:01.099Z,16.72
2022-09-03T20:40:54.656Z,16.68
2022-09-03T20:43:41.791Z,16.57
2022-09-03T20:46:32.552Z,16.62
2022-09-03T20:49:21.047Z,16.59
2022-09-03T20:52:06.603Z,16.75
2022-09-03T20:55:20.137Z,16.50
2022-09-03T20:58:07.341Z,16.34
2022-09-03T21:01:02.966Z,16.33
2022-09-03T21:04:12.399Z,16.21
2022-09-03T21:06:45.329Z,16.18
2022-09-03T21:09:27.480Z,16.22
2022-09-03T21:12:12.437Z,16.05
2022-09-03T21:14:58.953Z,16.02
2022-09-03T21:17:37.959Z,15.97
2022-09-03T21:20:10.776Z,15.96
2022-09-03T21:23:16.190Z,16.01
2022-09-03T21:25:52.145Z,16.02
2022-09-03T21:28:57.617Z,15.99
2022-09-03T21:31:49.641Z,16.31
2022-09-03T21:34:23.615Z,16.17
2022-09-03T21:36:52.924Z,16.32
2022-09-03T21:39:31.748Z,16.08
2022-09-03T21:41:58.778Z,16.06
2022-09-03T21:44:25.638Z,16.10
2022-09-03T21:46:57.107Z,16.01
2022-09-03T21:49:32.030Z,15.93
2022-09-03T21:52:03.927Z,15.87
2022-09-03T21:54:33.853Z,15.78
2022-09-03T21:57:26.327Z,15.69
2022-09-03T22:00:02.161Z,15.60
2022-09-03T22:02:40.633Z,15.48
2022-09-03T22:05:08.552Z,15.50
2022-09-03T22:08:00.512Z,15.48
2022-09-03T22:10:32.966Z,15.48
2022-09-03T22:13:17.037Z,15.35
2022-09-03T22:15:51.131Z,15.40
2022-09-03T22:18:31.176Z,15.27
2022-09-03T22:21:20.469Z,15.23
2022-09-03T22:23:55.748Z,15.25
2022-09-03T22:27:00.866Z,15.17
2022-09-03T22:29:43.648Z,15.17
2022-09-03T22:32:25.105Z,15.08
2022-09-03T22:35:22.581Z,15.07
2022-09-03T22:38:11.163Z,14.99
2022-09-03T22:40:52.401Z,14.98
2022-09-03T22:43:19.610Z,14.94
2022-09-03T22:46:20.641Z,14.93
2022-09-03T22:48:50.488Z,14.82
2022-09-03T22:51:21.659Z,14.88
2022-09-03T22:53:55.138Z,14.93
2022-09-03T22:56:24.990Z,14.84
2022-09-03T22:58:54.030Z,14.90
2022-09-03T23:04:53.153Z,14.97
2022-09-03T23:07:29.559Z,14.88
2022-09-03T23:10:05.623Z,14.95
2022-09-03T23:12:43.052Z,14.95
2022-09-03T23:15:32.735Z,14.89
2022-09-03T23:18:11.423Z,15.03
2022-09-03T23:20:43.651Z,14.92
2022-09-03T23:23:19.093Z,15.06
2022-09-03T23:25:51.826Z,15.03
2022-09-03T23:28:28.688Z,15.07
2022-09-03T23:31:03.606Z,15.11
2022-09-03T23:33:33.223Z,15.01
2022-09-03T23:36:08.918Z,15.20
2022-09-03T23:38:35.749Z,15.32
2022-09-03T23:41:12.959Z,15.33
2022-09-03T23:44:17.468Z,15.39
2022-09-03T23:47:21.420Z,15.28
2022-09-03T23:49:59.304Z,15.33
2022-09-03T23:53:05.402Z,15.34
2022-09-03T23:56:00.538Z,15.32
2022-09-03T23:58:48.494Z,15.25
